ADDS METAR Data INFO
IDs: Format: Raw Decoded Include TAF

Data at: 0930 UTC 25 Jun 2018

KBUR 250853Z 15006KT 10SM OVC010 16/15 A2996 RMK AO2 SLP133 T01610150 53007
KBUR 250810Z 17006KT 9SM BKN009 16/15 A2995 RMK AO2 T01560150
KBUR 250753Z 18005KT 10SM CLR 16/15 A2994 RMK AO2 SLP129 T01560150 402500156
KBUR 250653Z 17004KT 10SM CLR 16/15 A2994 RMK AO2 SLP127 T01610150
KBUR 250553Z 18005KT 10SM CLR 17/14 A2993 RMK AO2 SLP126 T01670144 10244 20167 50012
KBUR 250453Z 18005KT 10SM CLR 17/14 A2994 RMK AO2 SLP128 T01720144
KBUR 250353Z 18005KT 10SM CLR 18/14 A2991 RMK AO2 SLP119 T01830144
KBUR 250253Z 18008KT 10SM CLR 20/14 A2990 RMK AO2 SLP114 T02000144 55001
KBUR 250153Z 19008KT 10SM CLR 22/14 A2988 RMK AO2 SLP108 T02220144
KBUR 250053Z 17009KT 10SM CLR 23/14 A2989 RMK AO2 SLP108 T02330144
KBUR 242353Z 18011KT 10SM CLR 24/14 A2990 RMK AO2 SLP114 T02390144 10250 20183 58010
KBUR 242253Z 18008KT 10SM CLR 25/14 A2992 RMK AO2 SLP118 T02500139
KBUR 242153Z 18009KT 10SM CLR 24/14 A2992 RMK AO2 SLP121 T02440144
KBUR 242053Z 16010KT 10SM CLR 24/14 A2993 RMK AO2 SLP124 T02440144 58008
KBUR 241953Z 17008KT 10SM CLR 22/14 A2994 RMK AO2 SLP128 T02220144
KBUR 241853Z 15006KT 10SM SCT020 21/15 A2995 RMK AO2 SLP131 T02060150
KBUR 241753Z 16007KT 10SM OVC016 18/15 A2996 RMK AO2 SLP133 T01830150 10183 20161 51013
KBUR 241735Z 16006KT 10SM OVC016 18/15 A2995 RMK AO2 T01830150
KBUR 241653Z 15007KT 10SM OVC013 17/15 A2995 RMK AO2 SLP131 T01720150
KBUR 241553Z 16007KT 10SM OVC012 17/15 A2994 RMK AO2 SLP128 T01670150
KBUR 241453Z 17007KT 10SM OVC012 17/15 A2992 RMK AO2 SLP120 T01670150 53014
KBUR 241353Z 15004KT 10SM OVC011 16/15 A2990 RMK AO2 SLP115 T01610150
KBUR 241253Z 17004KT 10SM OVC012 16/15 A2989 RMK AO2 SLP110 T01610150
KBUR 241153Z 13007KT 10SM OVC012 17/14 A2987 RMK AO2 SLP105 T01670144 10167 20161 53003
KBUR 241053Z 15005KT 10SM OVC013 16/14 A2986 RMK AO2 SLP100 T01610144
KBUR 240953Z 16004KT 10SM OVC014 17/14 A2986 RMK AO2 SLP100 T01670144
KBUR 240853Z 17005KT 10SM OVC014 17/14 A2987 RMK AO2 SLP102 T01670144 58002
KBUR 240753Z 16005KT 10SM OVC014 17/14 A2987 RMK AO2 SLP102 T01670144 402390167
KBUR 240653Z 15006KT 10SM OVC014 17/14 A2987 RMK AO2 SLP105 T01670144
KBUR 240553Z 16006KT 10SM OVC015 17/14 A2987 RMK AO2 SLP105 T01670144 10233 20167 51013
KBUR 240527Z 14007KT 10SM BKN016 17/14 A2987 RMK AO2 T01670144
KBUR 240453Z 17006KT 10SM CLR 17/14 A2986 RMK AO2 SLP102 T01670144
KBUR 240353Z 18007KT 10SM CLR 18/14 A2985 RMK AO2 SLP096 T01780144
KBUR 240253Z 18010KT 10SM CLR 19/14 A2983 RMK AO2 SLP091 T01940144 55001
KBUR 240153Z 17009KT 10SM CLR 22/15 A2982 RMK AO2 SLP087 T02170150
KBUR 240053Z 16007KT 10SM CLR 22/15 A2982 RMK AO2 SLP086 T02220150
KBUR 232353Z 18009KT 10SM CLR 23/15 A2983 RMK AO2 SLP091 T02330150 10239 20194 58009
KBUR 232253Z 19010KT 10SM CLR 24/15 A2985 RMK AO2 SLP095 T02390150
KBUR 232153Z 17011KT 10SM CLR 23/16 A2986 RMK AO2 SLP099 T02330161